Time;durP1;ratioP1;P1;durP2;ratioP2;P2;SDS_P1;SDS_P2;PMS_P1;PMS_P2;Temp;Humidity;BMP_temperature;BMP_pressure;BME280_temperature;BME280_humidity;BME280_pressure;Samples;Min_cycle;Max_cycle;Signal;HPM_P1;HPM_P2
2021/10/18 00:01:18;;;;;;;366.83;63.23;;;11.30;99.90;;;;;;6159075;23;20842;-76
2021/10/18 00:03:47;;;;;;;138.23;30.63;;;11.20;99.90;;;;;;6159591;23;20478;-76
2021/10/18 00:06:16;;;;;;;143.35;34.47;;;11.20;99.90;;;;;;6158830;23;20882;-76
2021/10/18 00:08:46;;;;;;;197.57;39.27;;;11.20;99.90;;;;;;6159151;23;20324;-76
2021/10/18 00:11:14;;;;;;;237.13;46.87;;;11.30;99.90;;;;;;6159072;23;20411;-76
2021/10/18 00:14:02;;;;;;;249.07;50.47;;;11.30;99.90;;;;;;6159135;23;20396;-76
2021/10/18 00:16:34;;;;;;;297.20;47.87;;;11.30;99.90;;;;;;6159859;23;20415;-76
2021/10/18 00:19:04;;;;;;;136.97;40.70;;;11.30;99.90;;;;;;6197383;23;20422;-76
2021/10/18 00:21:33;;;;;;;135.87;36.93;;;11.30;99.90;;;;;;6160936;23;20526;-76
2021/10/18 00:24:01;;;;;;;248.90;44.10;;;11.30;99.90;;;;;;6160894;23;20411;-76
2021/10/18 00:26:29;;;;;;;154.97;37.77;;;11.30;99.90;;;;;;6197360;23;20411;-76
2021/10/18 00:28:57;;;;;;;277.63;55.43;;;11.30;99.90;;;;;;6161009;23;20471;-76
2021/10/18 00:31:26;;;;;;;123.60;34.33;;;11.30;99.90;;;;;;6187630;23;20413;-76
2021/10/18 00:33:54;;;;;;;288.13;72.33;;;11.30;99.90;;;;;;6161228;23;20427;-77
2021/10/18 00:36:26;;;;;;;227.03;45.70;;;11.30;99.90;;;;;;6160906;23;20423;-76
2021/10/18 00:38:54;;;;;;;350.63;61.60;;;11.30;99.90;;;;;;6197442;23;20413;-76
2021/10/18 00:41:22;;;;;;;337.60;66.17;;;11.30;99.90;;;;;;6198043;23;20518;-76
2021/10/18 00:43:51;;;;;;;370.63;81.30;;;11.30;99.90;;;;;;6160852;23;20739;-76
2021/10/18 00:46:22;;;;;;;303.77;56.40;;;11.30;99.90;;;;;;6186903;23;20895;-76
2021/10/18 00:48:51;;;;;;;357.93;66.43;;;11.30;99.90;;;;;;6160947;23;20430;-76
2021/10/18 00:51:25;;;;;;;304.20;55.00;;;11.30;99.90;;;;;;6160903;23;20418;-76
2021/10/18 00:53:56;;;;;;;307.60;79.67;;;11.30;99.90;;;;;;6160922;23;20490;-76
2021/10/18 00:56:31;;;;;;;20.88;18.88;;;11.30;99.90;;;;;;6160047;23;20879;-76
2021/10/18 00:59:01;;;;;;;78.13;49.63;;;11.40;99.90;;;;;;6197204;23;20188;-76
2021/10/18 01:01:31;;;;;;;96.15;41.47;;;11.40;99.90;;;;;;6160087;23;20799;-76
2021/10/18 01:04:04;;;;;;;64.23;40.67;;;11.40;99.90;;;;;;6160852;23;20169;-76
2021/10/18 01:06:33;;;;;;;414.80;101.57;;;11.40;99.90;;;;;;6160618;23;20422;-77
2021/10/18 01:09:02;;;;;;;332.53;84.00;;;11.40;99.90;;;;;;6160500;23;20752;-76
2021/10/18 01:11:30;;;;;;;262.10;49.33;;;11.40;99.90;;;;;;6160937;23;20906;-76
2021/10/18 01:13:58;;;;;;;419.73;105.47;;;11.40;99.90;;;;;;6197035;23;20497;-76
2021/10/18 01:16:26;;;;;;;251.37;55.00;;;11.40;99.90;;;;;;6160157;23;20510;-76
2021/10/18 01:18:57;;;;;;;257.03;59.23;;;11.40;99.90;;;;;;6160397;23;20518;-76
2021/10/18 01:21:27;;;;;;;281.27;55.53;;;11.40;99.90;;;;;;6160366;23;20522;-76
2021/10/18 01:23:55;;;;;;;226.33;56.63;;;11.40;99.90;;;;;;6160447;23;20416;-76
2021/10/18 01:26:23;;;;;;;345.00;72.23;;;11.40;99.90;;;;;;6197232;23;20491;-76
2021/10/18 01:28:51;;;;;;;340.73;66.00;;;11.40;99.90;;;;;;6186963;23;20507;-76
2021/10/18 01:31:19;;;;;;;194.67;45.07;;;11.40;99.90;;;;;;6160405;23;20442;-76
2021/10/18 01:33:48;;;;;;;290.27;54.40;;;11.40;99.90;;;;;;6197434;23;20452;-76
2021/10/18 01:36:18;;;;;;;212.20;51.13;;;11.40;99.90;;;;;;6196384;23;20406;-76
2021/10/18 01:38:48;;;;;;;294.43;60.60;;;11.40;99.90;;;;;;6160413;23;20438;-76
2021/10/18 01:41:16;;;;;;;297.67;63.83;;;11.40;99.90;;;;;;6160172;23;20470;-76
2021/10/18 01:43:44;;;;;;;337.50;86.77;;;11.40;99.90;;;;;;6160581;23;20442;-76
2021/10/18 01:46:12;;;;;;;18.75;16.75;;;11.40;99.90;;;;;;6159360;23;20411;-77
2021/10/18 01:48:40;;;;;;;302.30;85.57;;;11.40;99.90;;;;;;6186896;23;20307;-76
2021/10/18 01:51:09;;;;;;;41.42;25.92;;;11.40;99.90;;;;;;6160168;23;20420;-76
2021/10/18 01:53:38;;;;;;;60.23;42.67;;;11.50;99.90;;;;;;6196927;23;20179;-76
2021/10/18 01:56:07;;;;;;;355.67;100.47;;;11.40;99.90;;;;;;6160285;23;20787;-77
2021/10/18 01:58:36;;;;;;;435.53;100.93;;;11.40;99.90;;;;;;6159977;23;20526;-75
2021/10/18 02:01:05;;;;;;;410.43;69.73;;;11.40;99.90;;;;;;6160021;23;20467;-76
2021/10/18 02:03:33;;;;;;;438.23;98.60;;;11.40;99.90;;;;;;6159745;23;20502;-76
2021/10/18 02:06:01;;;;;;;374.37;70.63;;;11.40;99.90;;;;;;6160069;23;20784;-76
2021/10/18 02:08:33;;;;;;;437.77;66.43;;;11.40;99.90;;;;;;6160003;23;21028;-76
2021/10/18 02:11:01;;;;;;;310.57;66.27;;;11.40;99.90;;;;;;6160174;23;20410;-76
2021/10/18 02:13:31;;;;;;;339.80;60.00;;;11.40;99.90;;;;;;6160088;23;20820;-75
2021/10/18 02:15:59;;;;;;;300.80;63.03;;;11.40;99.90;;;;;;6196634;23;20478;-76
2021/10/18 02:18:27;;;;;;;371.60;83.50;;;11.40;99.90;;;;;;6160264;23;20440;-76
2021/10/18 02:20:59;;;;;;;354.27;79.13;;;11.40;99.90;;;;;;6159950;23;20462;-76
2021/10/18 02:23:29;;;;;;;324.77;61.00;;;11.30;99.90;;;;;;6160089;23;20404;-76
2021/10/18 02:25:58;;;;;;;358.23;75.40;;;11.30;99.90;;;;;;6159928;23;20455;-76
2021/10/18 02:28:27;;;;;;;323.70;55.63;;;11.30;99.90;;;;;;6159908;23;20491;-76
2021/10/18 02:30:56;;;;;;;154.77;46.03;;;11.30;99.90;;;;;;6159908;23;20447;-76
2021/10/18 02:33:24;;;;;;;308.33;64.10;;;11.30;99.90;;;;;;6159836;23;20426;-76
2021/10/18 02:35:53;;;;;;;20.52;18.42;;;11.30;99.90;;;;;;6158574;23;20423;-76
2021/10/18 02:38:22;;;;;;;173.23;72.03;;;11.30;99.90;;;;;;6161031;23;20225;-76
2021/10/18 02:40:50;;;;;;;36.20;28.97;;;11.30;99.90;;;;;;6185356;23;20506;-76
2021/10/18 02:43:18;;;;;;;230.50;89.23;;;11.30;99.90;;;;;;6159806;23;20511;-76
2021/10/18 02:45:50;;;;;;;629.97;142.60;;;11.30;99.90;;;;;;6159702;23;20418;-76
2021/10/18 02:48:19;;;;;;;245.77;50.50;;;11.30;99.90;;;;;;6196666;23;20446;-76
2021/10/18 02:50:48;;;;;;;250.27;49.17;;;11.30;99.90;;;;;;6159865;23;20510;-76
2021/10/18 02:53:19;;;;;;;330.67;72.33;;;11.20;99.90;;;;;;6196769;23;20408;-76
2021/10/18 02:55:48;;;;;;;351.47;72.40;;;11.20;99.90;;;;;;6159608;23;20514;-76
2021/10/18 02:58:16;;;;;;;310.07;71.73;;;11.20;99.90;;;;;;6159839;23;20431;-76
2021/10/18 03:00:44;;;;;;;304.50;53.33;;;11.20;99.90;;;;;;6159451;23;20507;-76
2021/10/18 03:03:13;;;;;;;278.73;64.77;;;11.20;99.90;;;;;;6186309;23;20412;-76
2021/10/18 03:05:42;;;;;;;149.40;49.73;;;11.20;99.90;;;;;;6186101;23;20404;-76
2021/10/18 03:08:11;;;;;;;172.33;47.93;;;11.20;99.90;;;;;;6195799;23;20806;-76
2021/10/18 03:10:43;;;;;;;329.93;66.23;;;11.20;99.90;;;;;;6195928;23;20383;-76
2021/10/18 03:13:16;;;;;;;315.67;66.93;;;11.20;99.90;;;;;;6159919;23;20479;-76
2021/10/18 03:15:45;;;;;;;190.63;48.67;;;11.20;99.90;;;;;;6160402;23;20941;-76
2021/10/18 03:18:13;;;;;;;199.87;49.17;;;11.10;99.90;;;;;;6196052;23;20407;-76
2021/10/18 03:20:43;;;;;;;219.77;46.57;;;11.10;99.90;;;;;;6159582;23;20423;-76
2021/10/18 03:23:12;;;;;;;280.80;58.73;;;11.20;99.90;;;;;;6185820;23;20435;-76
2021/10/18 03:25:40;;;;;;;23.00;20.80;;;11.10;99.90;;;;;;6159456;23;20407;-76
2021/10/18 03:28:09;;;;;;;280.50;86.57;;;11.20;99.90;;;;;;6159654;23;20195;-76
2021/10/18 03:30:37;;;;;;;280.00;83.33;;;11.20;99.90;;;;;;6195986;23;20802;-76
2021/10/18 03:33:05;;;;;;;314.57;73.77;;;11.20;99.90;;;;;;6159279;23;20470;-76
2021/10/18 03:35:34;;;;;;;391.37;73.30;;;11.20;99.90;;;;;;6159394;23;20415;-76
2021/10/18 03:38:03;;;;;;;234.97;59.90;;;11.20;99.90;;;;;;6159401;23;20414;-76
2021/10/18 03:40:31;;;;;;;321.37;65.80;;;11.10;99.90;;;;;;6159255;23;20482;-76
2021/10/18 03:43:01;;;;;;;208.73;53.83;;;11.10;99.90;;;;;;6159335;23;20514;-76
2021/10/18 03:45:29;;;;;;;229.20;55.23;;;11.10;99.90;;;;;;6159313;23;20490;-76
2021/10/18 03:47:57;;;;;;;327.77;60.80;;;11.10;99.90;;;;;;6159316;23;20415;-76
2021/10/18 03:50:26;;;;;;;225.43;48.83;;;11.00;99.90;;;;;;6159815;23;20407;-76
2021/10/18 03:52:55;;;;;;;191.10;40.97;;;11.10;99.90;;;;;;6197610;23;20396;-76
2021/10/18 03:55:24;;;;;;;277.73;58.27;;;11.10;99.90;;;;;;6161504;23;20418;-76
2021/10/18 03:57:52;;;;;;;166.33;46.47;;;11.00;99.90;;;;;;6161153;23;20505;-76
2021/10/18 04:00:23;;;;;;;193.33;50.43;;;11.10;99.90;;;;;;6187941;23;20442;-76
2021/10/18 04:02:51;;;;;;;277.73;53.50;;;11.00;99.90;;;;;;6197479;23;20427;-76
2021/10/18 04:05:19;;;;;;;234.37;65.00;;;11.00;99.90;;;;;;6187969;23;20403;-76
2021/10/18 04:07:48;;;;;;;218.67;50.60;;;11.00;99.90;;;;;;6197930;23;20486;-76
2021/10/18 04:10:18;;;;;;;227.00;56.63;;;11.00;99.90;;;;;;6161167;23;20518;-75
2021/10/18 04:12:48;;;;;;;244.93;52.20;;;11.00;99.90;;;;;;6161237;23;20430;-76
2021/10/18 04:15:16;;;;;;;321.93;63.37;;;11.00;99.90;;;;;;6161035;23;20419;-76
2021/10/18 04:17:45;;;;;;;343.73;65.30;;;11.00;99.90;;;;;;6161047;23;20815;-76
2021/10/18 04:20:13;;;;;;;249.23;49.73;;;11.00;99.90;;;;;;6197327;23;20426;-76
2021/10/18 04:22:46;;;;;;;24.27;21.88;;;11.00;99.90;;;;;;6159702;23;20415;-76
2021/10/18 04:25:15;;;;;;;127.10;64.00;;;11.10;99.90;;;;;;6161131;23;20168;-76
2021/10/18 04:27:43;;;;;;;135.07;62.13;;;11.10;99.90;;;;;;6197453;23;20396;-76
2021/10/18 04:30:13;;;;;;;325.47;72.90;;;11.10;99.90;;;;;;6187568;23;20428;-76
2021/10/18 04:32:41;;;;;;;165.00;41.90;;;11.10;99.90;;;;;;6160937;23;20502;-77
2021/10/18 04:35:09;;;;;;;297.43;57.17;;;11.10;99.90;;;;;;6197245;23;20408;-76
2021/10/18 04:37:38;;;;;;;230.60;62.43;;;11.00;99.90;;;;;;6160894;23;20498;-76
2021/10/18 04:40:07;;;;;;;137.63;49.83;;;11.00;99.90;;;;;;6160817;23;20953;-77
2021/10/18 04:42:35;;;;;;;139.93;40.80;;;11.00;99.90;;;;;;6160870;23;20463;-76
2021/10/18 04:45:05;;;;;;;226.00;48.57;;;11.00;99.90;;;;;;6197237;23;20703;-76
2021/10/18 04:47:34;;;;;;;292.60;56.33;;;11.00;99.90;;;;;;6160310;23;20461;-76
2021/10/18 04:50:02;;;;;;;215.30;45.80;;;11.00;99.90;;;;;;6197449;23;20454;-76
2021/10/18 04:52:30;;;;;;;321.07;65.33;;;11.00;99.90;;;;;;6197198;23;20403;-76
2021/10/18 04:54:59;;;;;;;253.07;56.00;;;11.00;99.90;;;;;;6187519;23;20434;-76
2021/10/18 04:57:27;;;;;;;259.83;55.53;;;11.00;99.90;;;;;;6187346;23;20470;-76
2021/10/18 04:59:55;;;;;;;172.33;54.87;;;11.00;99.90;;;;;;6160640;23;20435;-76
2021/10/18 05:02:23;;;;;;;186.23;52.70;;;11.00;99.90;;;;;;6160187;23;20531;-76
2021/10/18 05:04:53;;;;;;;174.33;52.53;;;10.90;99.90;;;;;;6160283;23;20410;-75
2021/10/18 05:07:25;;;;;;;24.60;22.40;;;10.90;99.90;;;;;;6158985;23;20455;-76
2021/10/18 05:09:53;;;;;;;382.17;107.87;;;11.00;99.90;;;;;;6185853;23;20192;-75
2021/10/18 05:12:22;;;;;;;166.20;61.85;;;11.00;99.90;;;;;;6160307;23;20501;-76
2021/10/18 05:14:50;;;;;;;434.77;122.67;;;11.00;99.90;;;;;;6160674;23;20172;-76
2021/10/18 05:17:18;;;;;;;254.87;59.07;;;11.00;99.90;;;;;;6160619;23;20419;-76
2021/10/18 05:19:47;;;;;;;228.73;66.90;;;11.00;99.90;;;;;;6160561;23;20559;-76
2021/10/18 05:22:16;;;;;;;175.03;48.40;;;11.00;99.90;;;;;;6197414;23;20519;-76
2021/10/18 05:24:45;;;;;;;165.03;44.63;;;10.90;99.90;;;;;;6197250;23;20874;-76
2021/10/18 05:27:13;;;;;;;250.43;59.20;;;10.90;99.90;;;;;;6196881;23;20487;-76
2021/10/18 05:29:41;;;;;;;291.00;65.07;;;10.90;99.90;;;;;;6161077;23;20435;-76
2021/10/18 05:32:09;;;;;;;182.20;50.70;;;10.90;99.90;;;;;;6160971;23;20412;-76
2021/10/18 05:34:37;;;;;;;299.00;55.93;;;10.90;99.90;;;;;;6160549;23;20414;-76
2021/10/18 05:37:05;;;;;;;163.00;50.80;;;10.90;99.90;;;;;;6160471;23;20407;-76
2021/10/18 05:39:35;;;;;;;356.97;61.27;;;10.90;99.90;;;;;;6160136;23;20537;-76
2021/10/18 05:42:03;;;;;;;204.10;50.63;;;10.90;99.90;;;;;;6160373;23;20834;-76
2021/10/18 05:44:31;;;;;;;307.83;60.43;;;10.90;99.90;;;;;;6186994;23;20719;-76
2021/10/18 05:46:59;;;;;;;162.27;45.83;;;10.90;99.90;;;;;;6160259;23;21025;-76
2021/10/18 05:49:29;;;;;;;263.93;59.73;;;10.90;99.90;;;;;;6160293;23;20427;-76
2021/10/18 05:51:57;;;;;;;220.13;56.43;;;10.90;99.90;;;;;;6196899;23;20410;-76
2021/10/18 05:54:25;;;;;;;282.87;60.60;;;10.90;99.90;;;;;;6187582;23;20764;-76
2021/10/18 05:57:11;;;;;;;319.43;59.33;;;10.90;99.90;;;;;;6187197;23;20458;-76
2021/10/18 05:59:39;;;;;;;269.17;60.90;;;10.90;99.90;;;;;;6160204;23;20838;-76
2021/10/18 06:02:07;;;;;;;330.90;82.87;;;10.90;99.90;;;;;;6197026;23;20410;-76
2021/10/18 06:04:40;;;;;;;23.67;21.27;;;10.90;99.90;;;;;;6159378;23;20424;-75
2021/10/18 06:07:11;;;;;;;111.73;63.90;;;11.00;99.90;;;;;;6160479;23;20168;-75
2021/10/18 06:09:40;;;;;;;550.00;138.73;;;11.00;99.90;;;;;;6160546;23;20463;-76
2021/10/18 06:12:08;;;;;;;319.80;68.43;;;11.00;99.90;;;;;;6187314;23;20400;-76
2021/10/18 06:14:37;;;;;;;236.03;63.57;;;11.00;99.90;;;;;;6196987;23;20450;-76
2021/10/18 06:17:05;;;;;;;376.13;67.07;;;11.00;99.90;;;;;;6160511;23;20450;-76
2021/10/18 06:19:33;;;;;;;333.77;74.60;;;11.00;99.90;;;;;;6197111;23;20420;-75
2021/10/18 06:22:02;;;;;;;164.37;53.57;;;10.90;99.90;;;;;;6160534;23;20419;-76
2021/10/18 06:24:30;;;;;;;252.87;74.90;;;11.00;99.90;;;;;;6186909;23;20834;-76
2021/10/18 06:26:58;;;;;;;243.27;71.00;;;11.00;99.90;;;;;;6160470;23;20760;-76
2021/10/18 06:29:27;;;;;;;299.63;73.37;;;11.00;99.90;;;;;;6160313;23;20439;-76
2021/10/18 06:31:56;;;;;;;380.03;74.60;;;11.00;99.90;;;;;;6160261;23;20470;-76
2021/10/18 06:34:25;;;;;;;316.97;58.47;;;11.00;99.90;;;;;;6160799;23;20412;-76
2021/10/18 06:36:53;;;;;;;351.77;70.97;;;11.00;99.90;;;;;;6160555;23;20454;-75
2021/10/18 06:39:21;;;;;;;168.87;55.53;;;11.00;99.90;;;;;;6160099;23;20957;-76
2021/10/18 06:41:49;;;;;;;257.47;60.07;;;11.00;99.90;;;;;;6160534;23;20424;-76
2021/10/18 06:44:17;;;;;;;370.70;70.23;;;11.00;99.90;;;;;;6160250;23;20439;-76
2021/10/18 06:46:46;;;;;;;457.67;78.30;;;11.10;99.90;;;;;;6160259;23;20863;-76
2021/10/18 06:49:15;;;;;;;111.45;38.22;;;11.10;99.90;;;;;;6195991;23;20747;-75
2021/10/18 06:51:49;;;;;;;73.80;49.13;;;11.10;99.90;;;;;;6160045;23;20260;-76
2021/10/18 06:54:17;;;;;;;532.50;109.33;;;11.10;99.90;;;;;;6159982;23;20440;-76
2021/10/18 06:56:45;;;;;;;374.47;83.60;;;11.10;99.90;;;;;;6196282;23;20407;-76
2021/10/18 06:59:13;;;;;;;386.17;77.93;;;11.10;99.90;;;;;;6159755;23;20474;-75
2021/10/18 07:01:42;;;;;;;363.13;78.90;;;11.20;99.90;;;;;;6159677;23;20411;-75
2021/10/18 07:04:10;;;;;;;245.63;59.50;;;11.20;99.90;;;;;;6196109;23;20427;-76
2021/10/18 07:06:40;;;;;;;309.23;64.13;;;11.20;99.90;;;;;;6159690;23;20692;-76
2021/10/18 07:09:08;;;;;;;302.27;65.50;;;11.20;99.90;;;;;;6196647;23;20469;-76
2021/10/18 07:11:36;;;;;;;306.40;72.70;;;11.20;99.90;;;;;;6159737;23;20422;-75
2021/10/18 07:14:04;;;;;;;285.53;81.90;;;11.20;99.90;;;;;;6195818;23;20501;-75
2021/10/18 07:16:32;;;;;;;414.80;81.93;;;11.20;99.90;;;;;;6159479;23;20415;-75
2021/10/18 07:19:01;;;;;;;312.03;88.50;;;11.30;99.90;;;;;;6195625;23;20415;-75
2021/10/18 07:21:30;;;;;;;420.53;66.93;;;11.20;99.90;;;;;;6185641;23;20538;-75
2021/10/18 07:24:03;;;;;;;261.40;63.67;;;11.30;99.90;;;;;;6195970;23;20434;-76
2021/10/18 07:26:32;;;;;;;372.77;94.33;;;11.30;99.90;;;;;;6159665;23;20403;-76
2021/10/18 07:29:09;;;;;;;283.50;66.43;;;11.30;99.90;;;;;;6159557;23;20522;-76
2021/10/18 07:31:37;;;;;;;255.63;72.30;;;11.30;99.90;;;;;;6186059;23;20528;-76
2021/10/18 07:34:12;;;;;;;357.20;78.23;;;11.40;99.90;;;;;;6159493;23;20419;-76
2021/10/18 07:36:48;;;;;;;323.13;70.13;;;11.40;99.90;;;;;;6159519;23;20418;-76
2021/10/18 07:39:19;;;;;;;307.73;64.10;;;11.40;99.90;;;;;;6159134;23;20439;-76
2021/10/18 07:41:48;;;;;;;21.48;19.48;;;11.40;99.90;;;;;;6158088;23;20470;-76
2021/10/18 07:44:16;;;;;;;129.73;62.83;;;11.50;99.90;;;;;;6159323;23;20193;-76
2021/10/18 07:46:45;;;;;;;20.40;18.50;;;11.60;99.90;;;;;;6158149;23;20458;-76
2021/10/18 07:49:14;;;;;;;57.90;51.67;;;11.70;99.90;;;;;;6196003;23;20222;-76
2021/10/18 07:51:44;;;;;;;309.40;131.57;;;11.60;99.90;;;;;;6159436;23;20416;-76
2021/10/18 07:54:12;;;;;;;558.03;152.87;;;11.70;99.90;;;;;;6160733;23;20407;-76
2021/10/18 07:56:41;;;;;;;569.67;110.03;;;11.60;99.90;;;;;;6159759;23;20430;-76
2021/10/18 07:59:10;;;;;;;418.83;102.93;;;11.60;99.90;;;;;;6185793;23;20459;-76
2021/10/18 08:01:38;;;;;;;389.23;97.50;;;11.60;99.90;;;;;;6195617;23;20404;-75
2021/10/18 08:04:06;;;;;;;394.73;82.87;;;11.60;99.90;;;;;;6159260;23;20470;-75
2021/10/18 08:06:34;;;;;;;446.30;71.60;;;11.70;99.90;;;;;;6159352;23;20415;-76
2021/10/18 08:09:05;;;;;;;436.57;88.60;;;11.70;99.90;;;;;;6159367;23;20435;-75
2021/10/18 08:11:34;;;;;;;526.53;104.20;;;11.70;99.90;;;;;;6195611;23;20817;-75
2021/10/18 08:14:03;;;;;;;548.90;113.03;;;11.70;99.90;;;;;;6159807;23;20454;-75
2021/10/18 08:16:31;;;;;;;463.73;103.03;;;11.70;99.90;;;;;;6196022;23;20435;-74
2021/10/18 08:19:00;;;;;;;533.23;100.23;;;11.80;99.90;;;;;;6158974;23;20450;-75
2021/10/18 08:21:28;;;;;;;401.57;112.97;;;11.80;99.90;;;;;;6195471;23;20495;-76
2021/10/18 08:23:56;;;;;;;377.13;115.10;;;11.80;99.90;;;;;;6159096;23;20518;-76
2021/10/18 08:26:24;;;;;;;407.00;96.83;;;11.90;99.90;;;;;;6195565;23;20431;-75
2021/10/18 08:28:52;;;;;;;396.33;103.47;;;11.90;99.90;;;;;;6195307;23;20442;-76
2021/10/18 08:31:22;;;;;;;20.17;18.27;;;11.90;99.90;;;;;;6158084;23;20415;-76
2021/10/18 08:33:50;;;;;;;226.17;96.97;;;11.90;99.90;;;;;;6195444;23;20192;-76
2021/10/18 08:36:18;;;;;;;27.33;24.38;;;12.00;99.90;;;;;;6158483;23;20894;-75
2021/10/18 08:38:49;;;;;;;671.87;213.67;;;12.00;99.90;;;;;;6197617;23;20220;-76
2021/10/18 08:41:22;;;;;;;817.40;250.43;;;12.00;99.90;;;;;;6162177;23;20426;-76
2021/10/18 08:46:38;;;;;;;667.20;146.17;;;12.10;99.90;;;;;;6160878;23;20439;-76
2021/10/18 08:49:06;;;;;;;526.17;133.17;;;12.10;99.90;;;;;;6197090;23;20734;-76
2021/10/18 08:51:35;;;;;;;546.47;152.17;;;12.10;99.90;;;;;;6197499;23;20516;-76
2021/10/18 08:54:07;;;;;;;462.73;123.40;;;12.20;99.90;;;;;;6160869;23;20415;-76
2021/10/18 08:56:52;;;;;;;522.30;90.80;;;12.20;99.90;;;;;;6160897;23;20470;-75
2021/10/18 08:59:21;;;;;;;555.23;151.07;;;12.20;99.90;;;;;;6160820;23;20440;-75
2021/10/18 09:01:52;;;;;;;491.80;118.33;;;12.20;99.90;;;;;;6160679;23;20470;-76
2021/10/18 09:04:25;;;;;;;552.97;158.40;;;12.20;99.90;;;;;;6160727;23;20432;-76
2021/10/18 09:06:55;;;;;;;406.53;146.53;;;12.30;99.90;;;;;;6160761;23;20412;-76
2021/10/18 09:09:27;;;;;;;671.27;194.87;;;12.30;99.90;;;;;;6162029;23;20431;-76
2021/10/18 09:11:57;;;;;;;440.07;97.50;;;12.40;99.90;;;;;;6160643;23;20439;-76
2021/10/18 09:14:27;;;;;;;364.13;101.23;;;12.40;99.90;;;;;;6160804;23;20531;-76
2021/10/18 09:17:02;;;;;;;602.93;156.83;;;12.40;99.90;;;;;;6160470;23;20871;-75
2021/10/18 09:19:30;;;;;;;586.97;137.00;;;12.40;99.90;;;;;;6196911;23;20443;-75
2021/10/18 09:22:00;;;;;;;1084.17;272.03;;;12.50;99.90;;;;;;6160416;23;20970;-76
2021/10/18 09:24:39;;;;;;;999.17;285.83;;;12.50;99.90;;;;;;6160382;23;20518;-76
2021/10/18 09:27:10;;;;;;;18.52;16.83;;;12.60;99.90;;;;;;6196335;23;20400;-75
2021/10/18 09:29:44;;;;;;;343.33;116.73;;;12.60;99.90;;;;;;6196699;23;20187;-76
2021/10/18 09:32:18;;;;;;;724.83;238.03;;;12.70;99.90;;;;;;6187139;23;20392;-75
2021/10/18 09:34:47;;;;;;;1342.50;352.43;;;12.70;99.90;;;;;;6160529;23;20437;-76
2021/10/18 09:37:17;;;;;;;982.90;302.93;;;12.70;99.90;;;;;;6160383;23;20423;-76
2021/10/18 09:39:46;;;;;;;1423.77;337.03;;;12.70;99.90;;;;;;6196455;23;20526;-76
2021/10/18 09:42:16;;;;;;;1776.83;501.00;;;12.80;99.90;;;;;;6186999;23;20845;-76
2021/10/18 09:45:00;;;;;;;1995.00;587.23;;;12.80;99.90;;;;;;6160082;23;20431;-75
2021/10/18 10:51:17;;;;;;;1999.90;941.87;;;14.00;99.90;;;;;;6159715;23;20494;-76
2021/10/18 10:53:59;;;;;;;1999.90;934.27;;;14.00;99.90;;;;;;6159691;23;20407;-76
2021/10/18 10:56:38;;;;;;;19.33;17.50;;;14.10;99.90;;;;;;6158500;23;20451;-76
2021/10/18 10:59:13;;;;;;;1999.90;681.03;;;14.20;99.90;;;;;;6196143;23;20222;-76
2021/10/18 11:01:51;;;;;;;40.00;27.57;;;14.30;99.90;;;;;;6157865;23;20446;-76
2021/10/18 11:04:48;;;;;;;1999.90;830.33;;;14.30;99.90;;;;;;6195743;23;20406;-76
2021/10/18 11:07:41;;;;;;;1999.90;956.10;;;14.40;99.90;;;;;;6158634;23;20508;-76
2021/10/18 11:10:10;;;;;;;1999.90;943.13;;;14.40;99.90;;;;;;6157671;23;20505;-76
2021/10/18 11:12:41;;;;;;;1999.90;966.13;;;14.50;99.90;;;;;;6184890;23;20404;-76
2021/10/18 11:15:13;;;;;;;1999.90;927.57;;;14.50;99.90;;;;;;6160863;23;20740;-76
2021/10/18 11:17:46;;;;;;;1999.90;943.00;;;14.50;99.90;;;;;;6158151;23;20921;-76
2021/10/18 11:20:16;;;;;;;1999.90;868.60;;;14.60;99.90;;;;;;6185957;23;20493;-76
2021/10/18 11:22:46;;;;;;;1999.90;791.00;;;14.60;99.90;;;;;;6159590;23;20820;-76
2021/10/18 11:25:17;;;;;;;1999.90;989.43;;;14.60;99.90;;;;;;6159216;23;20938;-76
2021/10/18 11:27:50;;;;;;;1999.90;825.70;;;14.70;99.90;;;;;;6159418;23;20404;-76
2021/10/18 11:30:20;;;;;;;1999.90;978.60;;;14.70;99.90;;;;;;6195589;23;20416;-76
2021/10/18 11:32:55;;;;;;;1999.90;999.90;;;14.70;99.90;;;;;;6159263;23;20426;-76
2021/10/18 11:35:24;;;;;;;1999.90;752.77;;;14.80;99.90;;;;;;6185529;23;20454;-76
2021/10/18 11:38:00;;;;;;;1999.90;934.47;;;14.80;99.90;;;;;;6195727;23;20883;-76
2021/10/18 11:40:33;;;;;;;1999.90;947.85;;;14.80;99.90;;;;;;6158901;23;20423;-76
2021/10/18 11:43:02;;;;;;;1999.90;968.47;;;14.80;99.90;;;;;;6158849;23;20175;-76
2021/10/18 11:45:33;;;;;;;1999.90;876.93;;;14.90;99.90;;;;;;6159083;23;20438;-76
2021/10/18 11:48:07;;;;;;;113.03;69.78;;;14.90;99.90;;;;;;6157740;23;20963;-76
2021/10/18 11:50:37;;;;;;;1999.90;883.07;;;15.00;99.90;;;;;;6195379;23;20231;-76
2021/10/18 11:53:14;;;;;;;1999.90;928.00;;;15.00;99.90;;;;;;6159118;23;20929;-76
2021/10/18 11:55:48;;;;;;;1999.90;999.90;;;15.00;99.90;;;;;;6159486;23;20470;-76
2021/10/18 11:58:19;;;;;;;1999.90;913.47;;;15.00;99.90;;;;;;6185701;23;20405;-76
2021/10/18 12:00:57;;;;;;;1999.90;941.47;;;15.10;99.90;;;;;;6186115;23;20466;-76
2021/10/18 12:03:27;;;;;;;1999.90;938.37;;;15.10;99.90;;;;;;6158946;23;20399;-76
2021/10/18 12:05:56;;;;;;;1999.90;814.43;;;15.10;99.90;;;;;;6195479;23;20432;-76
2021/10/18 12:08:28;;;;;;;1999.90;959.37;;;15.20;99.90;;;;;;6159074;23;20497;-76
2021/10/18 12:10:59;;;;;;;1999.90;759.87;;;15.20;99.90;;;;;;6195204;23;20453;-76
2021/10/18 12:13:28;;;;;;;1999.90;892.67;;;15.20;99.90;;;;;;6160198;23;20897;-76
2021/10/18 12:16:07;;;;;;;1999.90;798.37;;;15.20;99.90;;;;;;6161240;23;20494;-76
2021/10/18 12:18:38;;;;;;;1999.90;549.63;;;15.30;99.90;;;;;;6161053;23;20521;-76
2021/10/18 12:21:09;;;;;;;1999.90;831.70;;;15.30;99.90;;;;;;6161229;23;20400;-76
2021/10/18 12:23:46;;;;;;;1999.90;792.40;;;15.30;99.90;;;;;;6161088;23;20537;-76
2021/10/18 12:26:18;;;;;;;374.47;139.70;;;15.30;99.90;;;;;;6159835;23;20414;-76
2021/10/18 12:28:50;;;;;;;1999.90;900.43;;;15.40;99.90;;;;;;6197653;23;20396;-76
2021/10/18 12:31:33;;;;;;;1981.93;691.88;;;15.50;99.90;;;;;;6160519;23;20461;-76
2021/10/18 12:34:04;;;;;;;1999.90;792.80;;;15.50;99.90;;;;;;6160853;23;20169;-76
2021/10/18 12:36:33;;;;;;;1999.90;850.30;;;15.50;99.90;;;;;;6159871;23;20414;-76
2021/10/18 12:39:02;;;;;;;1999.90;767.83;;;15.50;99.90;;;;;;6187507;23;20458;-76
2021/10/18 12:41:42;;;;;;;1999.90;875.07;;;15.50;99.90;;;;;;6159955;23;20390;-75
2021/10/18 12:44:12;;;;;;;1999.90;889.03;;;15.60;99.90;;;;;;6160174;23;20498;-76
2021/10/18 12:46:41;;;;;;;1999.90;776.73;;;15.60;99.90;;;;;;6194756;23;20780;-76
2021/10/18 12:49:09;;;;;;;1999.90;830.30;;;15.60;99.90;;;;;;6196799;23;20904;-76
2021/10/18 12:51:42;;;;;;;1999.90;694.17;;;15.60;99.90;;;;;;6187280;23;20411;-75
2021/10/18 12:54:23;;;;;;;1999.90;710.93;;;15.60;99.90;;;;;;6160880;23;20734;-76
2021/10/18 12:57:09;;;;;;;1999.90;577.87;;;15.60;99.90;;;;;;6197049;23;20391;-75
2021/10/18 12:59:39;;;;;;;1999.90;737.90;;;15.60;99.90;;;;;;6196831;23;20724;-75
2021/10/18 13:02:22;;;;;;;1999.90;806.10;;;15.60;99.90;;;;;;6195943;23;20388;-75
2021/10/18 13:05:07;;;;;;;1999.90;624.83;;;15.60;99.90;;;;;;6197461;23;20368;-75
2021/10/18 13:07:37;;;;;;;1999.90;568.23;;;15.60;99.90;;;;;;6160436;23;20480;-76
2021/10/18 13:10:07;;;;;;;756.88;251.23;;;15.60;99.90;;;;;;6195421;23;20392;-76
2021/10/18 13:12:37;;;;;;;1999.90;713.57;;;15.60;99.90;;;;;;6196132;23;20169;-76
2021/10/18 13:15:06;;;;;;;1999.90;858.03;;;15.60;99.90;;;;;;6160740;23;20514;-76
2021/10/18 13:17:34;;;;;;;1999.90;890.47;;;15.60;99.90;;;;;;6160647;23;20168;-76
2021/10/18 13:20:06;;;;;;;1999.90;629.80;;;15.70;99.90;;;;;;6196868;23;20876;-76
2021/10/18 13:22:34;;;;;;;1999.90;584.60;;;15.70;99.90;;;;;;6158950;23;20430;-76
2021/10/18 13:25:02;;;;;;;1999.90;693.67;;;15.70;99.90;;;;;;6196683;23;20422;-76
2021/10/18 13:27:32;;;;;;;1999.90;832.80;;;15.70;99.90;;;;;;6160135;23;20453;-76
2021/10/18 13:30:01;;;;;;;1999.90;437.43;;;15.70;99.90;;;;;;6196574;23;20412;-76
2021/10/18 13:32:46;;;;;;;1999.90;999.90;;;15.70;99.90;;;;;;6195653;23;20503;-76
2021/10/18 13:35:16;;;;;;;1999.90;789.17;;;15.70;99.90;;;;;;6160407;23;20378;-76